Time;durP1;ratioP1;P1;durP2;ratioP2;P2;SDS_P1;SDS_P2;PMS_P1;PMS_P2;Temp;Humidity;BMP_temperature;BMP_pressure;BME280_temperature;BME280_humidity;BME280_pressure;Samples;Min_cycle;Max_cycle;Signal;HPM_P1;HPM_P2
2023/03/22 00:00:00;;;;;;;;;;;;;;;;;;1035314;28;2635;-48
2023/03/22 00:00:30;;;;;;;;;;;;;;;;;;1038009;28;4084;-52
2023/03/22 00:01:22;;;;;;;;;;;;;;;;;;1032506;28;2907;-50
2023/03/22 00:01:52;;;;;;;;;;;;;;;;;;1033952;28;3990;-52
2023/03/22 00:02:24;;;;;;;;;;;;;;;;;;1033029;28;3000;-49
2023/03/22 00:02:55;;;;;;;;;;;;;;;;;;1036891;28;3682;-51
2023/03/22 00:03:26;;;;;;;;;;;;;;;;;;1037806;28;4058;-49
2023/03/22 00:03:56;;;;;;;;;;;;;;;;;;1034175;28;2325;-49
2023/03/22 00:04:27;;;;;;;;;;;;;;;;;;1032814;28;3955;-51
2023/03/22 00:04:57;;;;;;;;;;;;;;;;;;1035078;28;1722;-50
2023/03/22 00:05:29;;;;;;;;;;;;;;;;;;1032151;28;4380;-52
2023/03/22 00:05:59;;;;;;;;;;;;;;;;;;1033891;28;2691;-49
2023/03/22 00:06:30;;;;;;;;;;;;;;;;;;1033637;28;4089;-47
2023/03/22 00:07:00;;;;;;;;;;;;;;;;;;1034762;28;1916;-47
2023/03/22 00:07:30;;;;;;;;;;;;;;;;;;1033461;28;4084;-49
2023/03/22 00:08:04;;;;;;;;;;;;;;;;;;1031408;28;3039;-51
2023/03/22 00:08:35;;;;;;;;;;;;;;;;;;1035514;28;3922;-49
2023/03/22 00:09:05;;;;;;;;;;;;;;;;;;1031755;28;2927;-53
2023/03/22 00:09:35;;;;;;;;;;;;;;;;;;1032124;28;4061;-49
2023/03/22 00:10:06;;;;;;;;;;;;;;;;;;1033695;28;3543;-50
2023/03/22 00:10:36;;;;;;;;;;;;;;;;;;1034778;28;3889;-54
2023/03/22 00:11:07;;;;;;;;;;;;;;;;;;1034183;28;1649;-48
2023/03/22 00:11:37;;;;;;;;;;;;;;;;;;1031744;28;4252;-50
2023/03/22 00:12:07;;;;;;;;;;;;;;;;;;1035181;28;1723;-51
2023/03/22 00:12:38;;;;;;;;;;;;;;;;;;1032990;28;4056;-52
2023/03/22 00:13:10;;;;;;;;;;;;;;;;;;1034533;28;1599;-52
2023/03/22 00:13:41;;;;;;;;;;;;;;;;;;1032245;28;3924;-50
2023/03/22 00:14:12;;;;;;;;;;;;;;;;;;1032125;28;3042;-52
2023/03/22 00:14:42;;;;;;;;;;;;;;;;;;1033322;28;3888;-51
2023/03/22 00:15:14;;;;;;;;;;;;;;;;;;1033533;28;2407;-53
2023/03/22 00:15:47;;;;;;;;;;;;;;;;;;1033594;28;4049;-52
2023/03/22 00:16:17;;;;;;;;;;;;;;;;;;1032476;28;2801;-49
2023/03/22 00:16:48;;;;;;;;;;;;;;;;;;1033957;28;4055;-50
2023/03/22 00:17:18;;;;;;;;;;;;;;;;;;1032638;28;2660;-49
2023/03/22 00:17:51;;;;;;;;;;;;;;;;;;1033455;28;3837;-51
2023/03/22 00:18:22;;;;;;;;;;;;;;;;;;1034533;28;1624;-53
2023/03/22 00:18:52;;;;;;;;;;;;;;;;;;1030141;28;4019;-50
2023/03/22 00:19:23;;;;;;;;;;;;;;;;;;1034031;28;1706;-48
2023/03/22 00:19:53;;;;;;;;;;;;;;;;;;1032018;28;3694;-52
2023/03/22 00:20:29;;;;;;;;;;;;;;;;;;1034633;28;1905;-53
2023/03/22 00:20:59;;;;;;;;;;;;;;;;;;1032585;28;3839;-52
2023/03/22 00:21:29;;;;;;;;;;;;;;;;;;1030425;28;3896;-50
2023/03/22 00:22:02;;;;;;;;;;;;;;;;;;1036811;28;1664;-49
2023/03/22 00:22:32;;;;;;;;;;;;;;;;;;1034357;28;3933;-52
2023/03/22 00:23:02;;;;;;;;;;;;;;;;;;1034646;28;2259;-49
2023/03/22 00:23:33;;;;;;;;;;;;;;;;;;1033507;28;4043;-47
2023/03/22 00:24:03;;;;;;;;;;;;;;;;;;1035074;28;1770;-53
2023/03/22 00:24:33;;;;;;;;;;;;;;;;;;1032580;28;4402;-50
2023/03/22 00:25:04;;;;;;;;;;;;;;;;;;1034303;28;3676;-51
2023/03/22 00:25:35;;;;;;;;;;;;;;;;;;1030124;28;3959;-48
2023/03/22 00:26:06;;;;;;;;;;;;;;;;;;1033221;28;2771;-52
2023/03/22 00:26:36;;;;;;;;;;;;;;;;;;1032649;28;4068;-50
2023/03/22 00:27:06;;;;;;;;;;;;;;;;;;1032518;28;2714;-54
2023/03/22 00:27:37;;;;;;;;;;;;;;;;;;1033522;28;3891;-49
2023/03/22 00:28:07;;;;;;;;;;;;;;;;;;1034646;28;1849;-50
2023/03/22 00:28:37;;;;;;;;;;;;;;;;;;1034329;28;4252;-52
2023/03/22 00:29:07;;;;;;;;;;;;;;;;;;1032839;28;1974;-48
2023/03/22 00:29:38;;;;;;;;;;;;;;;;;;1032011;28;4084;-51
2023/03/22 00:30:09;;;;;;;;;;;;;;;;;;1033043;28;3265;-53
2023/03/22 00:30:39;;;;;;;;;;;;;;;;;;1032576;28;4037;-51
2023/03/22 00:31:09;;;;;;;;;;;;;;;;;;1033042;28;1832;-50
2023/03/22 00:31:40;;;;;;;;;;;;;;;;;;1033217;28;3942;-48
2023/03/22 00:32:10;;;;;;;;;;;;;;;;;;1033750;28;2315;-48
2023/03/22 00:32:44;;;;;;;;;;;;;;;;;;1033379;28;4002;-50
2023/03/22 00:33:14;;;;;;;;;;;;;;;;;;1031943;28;2872;-52
2023/03/22 00:33:44;;;;;;;;;;;;;;;;;;1033689;28;3947;-50
2023/03/22 00:34:15;;;;;;;;;;;;;;;;;;1032426;28;1777;-50
2023/03/22 00:34:45;;;;;;;;;;;;;;;;;;1029935;28;4055;-49
2023/03/22 00:35:15;;;;;;;;;;;;;;;;;;1034468;28;1716;-53
2023/03/22 00:35:49;;;;;;;;;;;;;;;;;;1033864;28;3871;-50
2023/03/22 00:36:19;;;;;;;;;;;;;;;;;;1033396;28;2270;-56
2023/03/22 00:36:50;;;;;;;;;;;;;;;;;;1031156;28;3745;-50
2023/03/22 00:37:21;;;;;;;;;;;;;;;;;;1031144;28;3012;-48
2023/03/22 00:37:51;;;;;;;;;;;;;;;;;;1033519;28;3842;-48
2023/03/22 00:38:21;;;;;;;;;;;;;;;;;;1033970;28;2965;-52
2023/03/22 00:38:51;;;;;;;;;;;;;;;;;;1033976;28;3983;-55
2023/03/22 00:39:22;;;;;;;;;;;;;;;;;;1032900;28;1683;-48
2023/03/22 00:39:52;;;;;;;;;;;;;;;;;;1030985;28;3812;-50
2023/03/22 00:40:22;;;;;;;;;;;;;;;;;;1029517;28;2876;-51
2023/03/22 00:40:52;;;;;;;;;;;;;;;;;;1032630;28;3937;-50
2023/03/22 00:41:23;;;;;;;;;;;;;;;;;;1029971;28;2942;-50
2023/03/22 00:41:53;;;;;;;;;;;;;;;;;;1032013;28;3866;-50
2023/03/22 00:42:23;;;;;;;;;;;;;;;;;;1031298;28;2667;-51
2023/03/22 00:42:54;;;;;;;;;;;;;;;;;;1032826;28;3933;-51
2023/03/22 00:43:24;;;;;;;;;;;;;;;;;;1032773;28;2821;-52
2023/03/22 00:43:54;;;;;;;;;;;;;;;;;;1033253;28;3763;-50
2023/03/22 00:44:24;;;;;;;;;;;;;;;;;;1031116;28;4027;-51
2023/03/22 00:44:55;;;;;;;;;;;;;;;;;;1032268;28;2820;-52
2023/03/22 00:45:25;;;;;;;;;;;;;;;;;;1032164;28;3884;-49
2023/03/22 00:45:56;;;;;;;;;;;;;;;;;;1035377;28;1826;-54
2023/03/22 00:46:26;;;;;;;;;;;;;;;;;;1029973;28;4074;-52
2023/03/22 00:46:56;;;;;;;;;;;;;;;;;;1029224;28;3029;-50
2023/03/22 00:47:27;;;;;;;;;;;;;;;;;;1031884;28;3912;-50
2023/03/22 00:47:57;;;;;;;;;;;;;;;;;;1030900;28;2901;-51
2023/03/22 00:48:27;;;;;;;;;;;;;;;;;;1034589;28;4063;-52
2023/03/22 00:48:58;;;;;;;;;;;;;;;;;;1034347;28;1916;-50
2023/03/22 00:49:29;;;;;;;;;;;;;;;;;;1034378;28;4043;-50
2023/03/22 00:49:59;;;;;;;;;;;;;;;;;;1032420;28;2925;-50
2023/03/22 00:50:30;;;;;;;;;;;;;;;;;;1033542;28;3970;-52
2023/03/22 00:51:00;;;;;;;;;;;;;;;;;;1033954;28;1614;-49
2023/03/22 00:51:30;;;;;;;;;;;;;;;;;;1034175;28;4247;-50
2023/03/22 00:52:01;;;;;;;;;;;;;;;;;;1033479;28;2708;-51
2023/03/22 00:52:31;;;;;;;;;;;;;;;;;;1032744;28;4127;-49
2023/03/22 00:53:02;;;;;;;;;;;;;;;;;;1034347;28;1755;-55
2023/03/22 00:53:34;;;;;;;;;;;;;;;;;;1033997;28;4443;-49
2023/03/22 00:54:04;;;;;;;;;;;;;;;;;;1034912;28;1769;-52
2023/03/22 00:54:34;;;;;;;;;;;;;;;;;;1031896;28;4062;-51
2023/03/22 00:55:05;;;;;;;;;;;;;;;;;;1032639;28;2487;-49
2023/03/22 00:55:35;;;;;;;;;;;;;;;;;;1033626;28;3962;-49
2023/03/22 00:56:06;;;;;;;;;;;;;;;;;;1034076;28;1747;-50
2023/03/22 00:56:37;;;;;;;;;;;;;;;;;;1034082;28;4151;-49
2023/03/22 00:57:07;;;;;;;;;;;;;;;;;;1034630;28;1999;-52
2023/03/22 00:57:37;;;;;;;;;;;;;;;;;;1032098;28;3967;-51
2023/03/22 00:58:08;;;;;;;;;;;;;;;;;;1034446;28;2436;-50
2023/03/22 00:58:38;;;;;;;;;;;;;;;;;;1031660;28;3927;-53
2023/03/22 00:59:08;;;;;;;;;;;;;;;;;;1032611;28;2832;-52
2023/03/22 00:59:39;;;;;;;;;;;;;;;;;;1031721;28;4056;-51
2023/03/22 01:00:12;;;;;;;;;;;;;;;;;;1032451;28;2779;-49
2023/03/22 01:00:43;;;;;;;;;;;;;;;;;;1033341;28;4087;-48
2023/03/22 01:01:14;;;;;;;;;;;;;;;;;;1034155;28;1911;-52
2023/03/22 01:01:44;;;;;;;;;;;;;;;;;;1034176;28;3809;-49
2023/03/22 01:02:14;;;;;;;;;;;;;;;;;;1032121;28;2853;-52
2023/03/22 01:02:45;;;;;;;;;;;;;;;;;;1034794;28;4155;-49
2023/03/22 01:03:16;;;;;;;;;;;;;;;;;;1034779;28;2071;-51
2023/03/22 01:03:49;;;;;;;;;;;;;;;;;;1033791;28;4012;-50
2023/03/22 01:04:24;;;;;;;;;;;;;;;;;;1035060;28;1761;-50
2023/03/22 01:04:55;;;;;;;;;;;;;;;;;;1029880;28;3912;-49
2023/03/22 01:05:27;;;;;;;;;;;;;;;;;;1032103;28;3982;-51
2023/03/22 01:05:57;;;;;;;;;;;;;;;;;;1030761;28;3132;-50
2023/03/22 01:06:27;;;;;;;;;;;;;;;;;;1034657;28;4301;-53
2023/03/22 01:07:02;;;;;;;;;;;;;;;;;;1034395;28;2008;-51
2023/03/22 01:07:32;;;;;;;;;;;;;;;;;;1034726;28;4093;-50
2023/03/22 01:08:05;;;;;;;;;;;;;;;;;;1034729;28;1929;-52
2023/03/22 01:08:37;;;;;;;;;;;;;;;;;;1032488;28;3967;-49
2023/03/22 01:09:13;;;;;;;;;;;;;;;;;;1034334;28;1786;-52
2023/03/22 01:09:44;;;;;;;;;;;;;;;;;;1031379;28;4185;-50
2023/03/22 01:10:14;;;;;;;;;;;;;;;;;;1033469;28;2965;-50
2023/03/22 01:10:45;;;;;;;;;;;;;;;;;;1033673;28;4233;-54
2023/03/22 01:11:15;;;;;;;;;;;;;;;;;;1034644;28;1761;-50
2023/03/22 01:11:46;;;;;;;;;;;;;;;;;;1031937;28;4378;-52
2023/03/22 01:12:17;;;;;;;;;;;;;;;;;;1034528;28;1877;-49
2023/03/22 01:12:47;;;;;;;;;;;;;;;;;;1034141;28;4120;-50
2023/03/22 01:13:17;;;;;;;;;;;;;;;;;;1034063;28;2760;-51
2023/03/22 01:13:48;;;;;;;;;;;;;;;;;;1032059;28;3957;-50
2023/03/22 01:14:18;;;;;;;;;;;;;;;;;;1032774;28;2678;-53
2023/03/22 01:14:48;;;;;;;;;;;;;;;;;;1030356;28;3810;-53
2023/03/22 01:15:19;;;;;;;;;;;;;;;;;;1033466;28;2910;-53
2023/03/22 01:15:50;;;;;;;;;;;;;;;;;;1029490;28;3924;-51
2023/03/22 01:16:20;;;;;;;;;;;;;;;;;;1033206;28;1972;-52
2023/03/22 01:16:53;;;;;;;;;;;;;;;;;;1034039;28;3913;-52
2023/03/22 01:17:24;;;;;;;;;;;;;;;;;;1035024;28;1724;-52
2023/03/22 01:17:54;;;;;;;;;;;;;;;;;;1032004;28;3760;-52
2023/03/22 01:18:24;;;;;;;;;;;;;;;;;;1034113;28;4114;-54
2023/03/22 01:18:55;;;;;;;;;;;;;;;;;;1033554;28;2019;-54
2023/03/22 01:19:26;;;;;;;;;;;;;;;;;;1033223;28;3881;-51
2023/03/22 01:19:56;;;;;;;;;;;;;;;;;;1031576;28;3252;-51
2023/03/22 01:20:26;;;;;;;;;;;;;;;;;;1032220;28;3825;-52
2023/03/22 01:20:58;;;;;;;;;;;;;;;;;;1035901;28;1671;-51
2023/03/22 01:21:28;;;;;;;;;;;;;;;;;;1033120;28;3957;-51
2023/03/22 01:21:58;;;;;;;;;;;;;;;;;;1032451;28;3110;-51
2023/03/22 01:22:29;;;;;;;;;;;;;;;;;;1034139;28;3927;-49
2023/03/22 01:22:59;;;;;;;;;;;;;;;;;;1034725;28;1496;-50
2023/03/22 01:23:30;;;;;;;;;;;;;;;;;;1034292;28;4113;-49
2023/03/22 01:24:01;;;;;;;;;;;;;;;;;;1033394;28;2317;-52
2023/03/22 01:24:31;;;;;;;;;;;;;;;;;;1031342;28;3899;-54
2023/03/22 01:25:02;;;;;;;;;;;;;;;;;;1031025;28;3056;-52
2023/03/22 01:25:32;;;;;;;;;;;;;;;;;;1033062;28;3916;-52
2023/03/22 01:26:03;;;;;;;;;;;;;;;;;;1034116;28;2970;-50
2023/03/22 01:26:34;;;;;;;;;;;;;;;;;;1030588;28;3927;-50
2023/03/22 01:27:04;;;;;;;;;;;;;;;;;;1031819;28;2967;-52
2023/03/22 01:27:35;;;;;;;;;;;;;;;;;;1030521;28;3802;-51
2023/03/22 01:28:06;;;;;;;;;;;;;;;;;;1031753;28;3172;-52
2023/03/22 01:28:39;;;;;;;;;;;;;;;;;;1033443;28;3908;-52
2023/03/22 01:29:09;;;;;;;;;;;;;;;;;;1032340;28;2805;-53
2023/03/22 01:29:39;;;;;;;;;;;;;;;;;;1032211;28;3808;-48
2023/03/22 01:30:11;;;;;;;;;;;;;;;;;;1029547;28;2820;-48
2023/03/22 01:30:41;;;;;;;;;;;;;;;;;;1034835;28;4036;-52
2023/03/22 01:31:11;;;;;;;;;;;;;;;;;;1032541;28;2858;-52
2023/03/22 01:31:41;;;;;;;;;;;;;;;;;;1032181;28;3811;-52
2023/03/22 01:32:12;;;;;;;;;;;;;;;;;;1034140;28;3112;-49
2023/03/22 01:32:42;;;;;;;;;;;;;;;;;;1033905;28;3867;-53
2023/03/22 01:33:12;;;;;;;;;;;;;;;;;;1033965;28;2234;-50
2023/03/22 01:33:43;;;;;;;;;;;;;;;;;;1032481;28;3937;-49
2023/03/22 01:34:13;;;;;;;;;;;;;;;;;;1031894;28;1849;-49
2023/03/22 01:34:44;;;;;;;;;;;;;;;;;;1030861;28;4052;-49
2023/03/22 01:35:15;;;;;;;;;;;;;;;;;;1033400;28;1624;-51
2023/03/22 01:35:45;;;;;;;;;;;;;;;;;;1031096;28;4057;-53
2023/03/22 01:36:15;;;;;;;;;;;;;;;;;;1034856;28;1676;-50
2023/03/22 01:36:45;;;;;;;;;;;;;;;;;;1033813;28;4232;-51
2023/03/22 01:37:16;;;;;;;;;;;;;;;;;;1031100;28;2935;-52
2023/03/22 01:37:46;;;;;;;;;;;;;;;;;;1032242;28;3786;-51
2023/03/22 01:38:16;;;;;;;;;;;;;;;;;;1029285;28;2937;-51
2023/03/22 01:38:46;;;;;;;;;;;;;;;;;;1031968;28;3876;-50
2023/03/22 01:39:17;;;;;;;;;;;;;;;;;;1031595;28;2798;-49
2023/03/22 01:39:47;;;;;;;;;;;;;;;;;;1033017;28;4099;-50
2023/03/22 01:40:18;;;;;;;;;;;;;;;;;;1032763;28;3104;-53
2023/03/22 01:40:48;;;;;;;;;;;;;;;;;;1033866;28;3811;-50
2023/03/22 01:41:18;;;;;;;;;;;;;;;;;;1033970;28;1686;-50
2023/03/22 01:41:49;;;;;;;;;;;;;;;;;;1032598;28;3907;-52
2023/03/22 01:42:21;;;;;;;;;;;;;;;;;;1029819;28;2804;-48
2023/03/22 01:42:51;;;;;;;;;;;;;;;;;;1033622;28;3836;-52
2023/03/22 01:43:22;;;;;;;;;;;;;;;;;;1033052;28;2961;-52
2023/03/22 01:44:05;;;;;;;;;;;;;;;;;;1032280;28;3911;-50
2023/03/22 01:44:35;;;;;;;;;;;;;;;;;;1032108;28;3966;-50
2023/03/22 01:45:12;;;;;;;;;;;;;;;;;;1031799;28;2908;-52
2023/03/22 01:45:42;;;;;;;;;;;;;;;;;;1033887;28;3986;-52
2023/03/22 01:46:12;;;;;;;;;;;;;;;;;;1034383;28;2184;-51
2023/03/22 01:46:44;;;;;;;;;;;;;;;;;;1032151;28;4145;-51
2023/03/22 01:47:14;;;;;;;;;;;;;;;;;;1035032;28;1713;-52
2023/03/22 01:47:47;;;;;;;;;;;;;;;;;;1033772;28;4021;-49
2023/03/22 01:48:21;;;;;;;;;;;;;;;;;;1031558;28;2748;-50
2023/03/22 01:48:52;;;;;;;;;;;;;;;;;;1034614;28;4010;-49
2023/03/22 01:49:25;;;;;;;;;;;;;;;;;;1034916;28;1680;-50
2023/03/22 01:49:55;;;;;;;;;;;;;;;;;;1032057;28;4159;-52
2023/03/22 01:50:26;;;;;;;;;;;;;;;;;;1033306;28;4044;-52
2023/03/22 01:51:02;;;;;;;;;;;;;;;;;;1033163;28;1835;-51
2023/03/22 01:51:32;;;;;;;;;;;;;;;;;;1034513;28;3794;-53
2023/03/22 01:52:05;;;;;;;;;;;;;;;;;;1032466;28;2737;-47
2023/03/22 01:52:36;;;;;;;;;;;;;;;;;;1032202;28;4048;-50
2023/03/22 01:53:07;;;;;;;;;;;;;;;;;;1034473;28;1766;-50
2023/03/22 01:53:39;;;;;;;;;;;;;;;;;;1034214;28;4065;-51
2023/03/22 01:54:13;;;;;;;;;;;;;;;;;;1033146;28;1742;-50
2023/03/22 01:54:45;;;;;;;;;;;;;;;;;;1031389;28;4085;-52
2023/03/22 01:55:17;;;;;;;;;;;;;;;;;;1032750;28;2872;-48
2023/03/22 01:55:47;;;;;;;;;;;;;;;;;;1033787;28;4062;-52
2023/03/22 01:56:20;;;;;;;;;;;;;;;;;;1034135;28;1850;-50
2023/03/22 01:56:50;;;;;;;;;;;;;;;;;;1034432;28;3801;-51
2023/03/22 01:57:21;;;;;;;;;;;;;;;;;;1032221;28;3151;-51
2023/03/22 01:57:52;;;;;;;;;;;;;;;;;;1032243;28;3800;-51
2023/03/22 01:58:22;;;;;;;;;;;;;;;;;;1030323;28;2806;-50
2023/03/22 01:58:53;;;;;;;;;;;;;;;;;;1033849;28;3875;-51
2023/03/22 01:59:24;;;;;;;;;;;;;;;;;;1032551;28;2417;-48
2023/03/22 01:59:54;;;;;;;;;;;;;;;;;;1030676;28;3812;-53
2023/03/22 02:00:24;;;;;;;;;;;;;;;;;;1032281;28;4033;-51
2023/03/22 02:00:55;;;;;;;;;;;;;;;;;;1031276;28;2732;-51
2023/03/22 02:01:26;;;;;;;;;;;;;;;;;;1032979;28;3901;-54
2023/03/22 02:01:58;;;;;;;;;;;;;;;;;;1032570;28;2790;-49
2023/03/22 02:02:29;;;;;;;;;;;;;;;;;;1035898;28;4088;-53
2023/03/22 02:03:00;;;;;;;;;;;;;;;;;;1036014;28;3365;-50
2023/03/22 02:03:53;;;;;;;;;;;;;;;;;;1037027;28;4074;-50
2023/03/22 02:04:24;;;;;;;;;;;;;;;;;;1031854;28;2328;-49
2023/03/22 02:04:56;;;;;;;;;;;;;;;;;;1030873;28;3779;-52
2023/03/22 02:05:27;;;;;;;;;;;;;;;;;;1035490;28;4064;-52
2023/03/22 02:05:57;;;;;;;;;;;;;;;;;;1033389;28;3012;-49
2023/03/22 02:06:28;;;;;;;;;;;;;;;;;;1037661;28;3981;-52
2023/03/22 02:07:00;;;;;;;;;;;;;;;;;;1039039;28;1453;-50
2023/03/22 02:07:31;;;;;;;;;;;;;;;;;;1037080;28;4065;-53
2023/03/22 02:08:03;;;;;;;;;;;;;;;;;;1038591;28;2320;-54
2023/03/22 02:08:33;;;;;;;;;;;;;;;;;;1038012;28;3958;-54
2023/03/22 02:09:08;;;;;;;;;;;;;;;;;;1035543;28;3114;-51
2023/03/22 02:09:40;;;;;;;;;;;;;;;;;;1037324;28;4109;-54
2023/03/22 02:10:18;;;;;;;;;;;;;;;;;;1039206;28;1711;-53
2023/03/22 02:10:48;;;;;;;;;;;;;;;;;;1037857;28;3871;-52
2023/03/22 02:11:22;;;;;;;;;;;;;;;;;;1037720;28;2659;-53
2023/03/22 02:12:02;;;;;;;;;;;;;;;;;;1036657;28;4014;-50
2023/03/22 02:12:55;;;;;;;;;;;;;;;;;;1035423;28;3799;-53
2023/03/22 02:13:25;;;;;;;;;;;;;;;;;;1032337;28;3995;-51
2023/03/22 02:13:56;;;;;;;;;;;;;;;;;;1035202;28;2323;-51
2023/03/22 02:14:41;;;;;;;;;;;;;;;;;;1037004;28;4179;-56
2023/03/22 02:15:18;;;;;;;;;;;;;;;;;;1034369;28;2804;-51
2023/03/22 02:15:58;;;;;;;;;;;;;;;;;;1037200;28;3903;-49
2023/03/22 02:16:29;;;;;;;;;;;;;;;;;;1035974;28;3974;-55
2023/03/22 02:17:08;;;;;;;;;;;;;;;;;;1039516;28;1994;-52
2023/03/22 02:17:58;;;;;;;;;;;;;;;;;;1037479;28;3878;-53
2023/03/22 02:18:31;;;;;;;;;;;;;;;;;;1037178;28;4091;-51
2023/03/22 02:19:29;;;;;;;;;;;;;;;;;;1037151;28;2510;-53
2023/03/22 02:20:09;;;;;;;;;;;;;;;;;;1036053;28;4328;-52
2023/03/22 02:20:51;;;;;;;;;;;;;;;;;;1038297;28;3942;-52
2023/03/22 02:21:24;;;;;;;;;;;;;;;;;;1037225;28;2823;-51
2023/03/22 02:22:01;;;;;;;;;;;;;;;;;;1038256;28;3783;-51
2023/03/22 02:22:48;;;;;;;;;;;;;;;;;;1037542;28;3901;-52
2023/03/22 02:23:19;;;;;;;;;;;;;;;;;;1035273;28;2913;-49
2023/03/22 02:23:49;;;;;;;;;;;;;;;;;;1036696;28;3852;-53
2023/03/22 02:24:33;;;;;;;;;;;;;;;;;;1038755;28;1793;-52
2023/03/22 02:25:03;;;;;;;;;;;;;;;;;;1037433;28;4888;-50
2023/03/22 02:25:41;;;;;;;;;;;;;;;;;;1037232;28;3810;-49
2023/03/22 02:26:11;;;;;;;;;;;;;;;;;;1035590;28;2951;-50
2023/03/22 02:27:03;;;;;;;;;;;;;;;;;;1036590;28;3983;-53
2023/03/22 02:27:49;;;;;;;;;;;;;;;;;;1036424;28;3913;-50
2023/03/22 02:28:39;;;;;;;;;;;;;;;;;;1036753;28;2825;-51
2023/03/22 02:29:16;;;;;;;;;;;;;;;;;;1036656;28;4029;-52
2023/03/22 02:29:53;;;;;;;;;;;;;;;;;;1037675;28;3951;-49
2023/03/22 02:30:32;;;;;;;;;;;;;;;;;;1034772;28;2614;-50
2023/03/22 02:31:08;;;;;;;;;;;;;;;;;;1035519;28;3925;-50
2023/03/22 02:31:54;;;;;;;;;;;;;;;;;;1037369;28;3894;-52
2023/03/22 02:32:43;;;;;;;;;;;;;;;;;;1038455;28;4061;-51
2023/03/22 02:33:13;;;;;;;;;;;;;;;;;;1037964;28;1763;-49
2023/03/22 02:33:44;;;;;;;;;;;;;;;;;;1036847;28;3945;-51
2023/03/22 02:34:26;;;;;;;;;;;;;;;;;;1037364;28;2409;-49
2023/03/22 02:34:56;;;;;;;;;;;;;;;;;;1034879;28;3853;-49
2023/03/22 02:35:26;;;;;;;;;;;;;;;;;;1039291;28;4045;-49
2023/03/22 02:36:08;;;;;;;;;;;;;;;;;;1036490;28;2925;-55
2023/03/22 02:36:51;;;;;;;;;;;;;;;;;;1034715;28;4077;-50
2023/03/22 02:37:39;;;;;;;;;;;;;;;;;;1037162;28;1809;-51
2023/03/22 02:38:26;;;;;;;;;;;;;;;;;;1036652;28;3944;-52
2023/03/22 02:39:06;;;;;;;;;;;;;;;;;;1035442;28;4735;-51
2023/03/22 02:39:37;;;;;;;;;;;;;;;;;;1038873;28;4111;-49
2023/03/22 02:40:26;;;;;;;;;;;;;;;;;;1039025;28;2218;-50
2023/03/22 02:41:02;;;;;;;;;;;;;;;;;;1032358;28;3877;-47
2023/03/22 02:41:38;;;;;;;;;;;;;;;;;;1034327;28;3889;-52
2023/03/22 02:42:11;;;;;;;;;;;;;;;;;;1032801;28;2667;-50
2023/03/22 02:43:01;;;;;;;;;;;;;;;;;;1032934;28;3987;-52
2023/03/22 02:43:33;;;;;;;;;;;;;;;;;;1034249;28;4112;-50
2023/03/22 02:44:08;;;;;;;;;;;;;;;;;;1031156;28;3092;-47
2023/03/22 02:44:40;;;;;;;;;;;;;;;;;;1031922;28;3804;-51
2023/03/22 02:45:16;;;;;;;;;;;;;;;;;;1032076;28;2576;-51
2023/03/22 02:46:02;;;;;;;;;;;;;;;;;;1032890;28;4054;-51
2023/03/22 02:46:44;;;;;;;;;;;;;;;;;;1033935;28;4026;-50
2023/03/22 02:47:19;;;;;;;;;;;;;;;;;;1032788;28;2872;-49
2023/03/22 02:47:55;;;;;;;;;;;;;;;;;;1034090;28;3896;-52
2023/03/22 02:48:35;;;;;;;;;;;;;;;;;;1031577;28;3936;-53
2023/03/22 02:49:13;;;;;;;;;;;;;;;;;;1032669;28;2600;-48
2023/03/22 02:49:49;;;;;;;;;;;;;;;;;;1032611;28;3966;-51
2023/03/22 02:50:23;;;;;;;;;;;;;;;;;;1034194;28;2046;-51
2023/03/22 02:50:55;;;;;;;;;;;;;;;;;;1032566;28;3956;-52
2023/03/22 02:51:30;;;;;;;;;;;;;;;;;;1034020;28;3976;-51
2023/03/22 02:52:04;;;;;;;;;;;;;;;;;;1030972;28;2968;-52
2023/03/22 02:52:40;;;;;;;;;;;;;;;;;;1032792;28;3935;-52
2023/03/22 02:53:14;;;;;;;;;;;;;;;;;;1031103;28;2718;-52
2023/03/22 02:54:06;;;;;;;;;;;;;;;;;;1032795;28;4505;-49
2023/03/22 02:54:40;;;;;;;;;;;;;;;;;;1031199;28;4065;-53
2023/03/22 02:55:22;;;;;;;;;;;;;;;;;;1031881;28;2939;-52
2023/03/22 02:55:57;;;;;;;;;;;;;;;;;;1032775;28;3994;-52
2023/03/22 02:56:40;;;;;;;;;;;;;;;;;;1032993;28;3903;-51
2023/03/22 02:57:13;;;;;;;;;;;;;;;;;;1034763;28;1740;-52
2023/03/22 02:57:47;;;;;;;;;;;;;;;;;;1033073;28;4041;-49
2023/03/22 02:58:24;;;;;;;;;;;;;;;;;;1034520;28;1844;-51
2023/03/22 02:59:00;;;;;;;;;;;;;;;;;;1033019;28;3922;-48
2023/03/22 02:59:32;;;;;;;;;;;;;;;;;;1034245;28;3950;-53
2023/03/22 03:00:09;;;;;;;;;;;;;;;;;;1030179;28;2939;-54
2023/03/22 03:00:40;;;;;;;;;;;;;;;;;;1033705;28;4081;-52
2023/03/22 03:01:16;;;;;;;;;;;;;;;;;;1033413;28;3066;-50
2023/03/22 03:01:57;;;;;;;;;;;;;;;;;;1031822;28;3912;-50
2023/03/22 03:02:29;;;;;;;;;;;;;;;;;;1033264;28;3923;-51
2023/03/22 03:03:10;;;;;;;;;;;;;;;;;;1032283;28;2451;-50
2023/03/22 03:03:40;;;;;;;;;;;;;;;;;;1031778;28;4064;-50
2023/03/22 03:04:17;;;;;;;;;;;;;;;;;;1032462;28;2741;-50
2023/03/22 03:04:49;;;;;;;;;;;;;;;;;;1034465;28;4575;-51
2023/03/22 03:05:20;;;;;;;;;;;;;;;;;;1033867;28;2728;-52
2023/03/22 03:05:53;;;;;;;;;;;;;;;;;;1029671;28;3807;-49
2023/03/22 03:06:27;;;;;;;;;;;;;;;;;;1032718;28;2532;-52
2023/03/22 03:07:00;;;;;;;;;;;;;;;;;;1032893;28;3851;-49
2023/03/22 03:07:31;;;;;;;;;;;;;;;;;;1035365;28;4065;-52
2023/03/22 03:08:02;;;;;;;;;;;;;;;;;;1036499;28;2966;-50
2023/03/22 03:08:33;;;;;;;;;;;;;;;;;;1039320;28;3906;-51
2023/03/22 03:09:05;;;;;;;;;;;;;;;;;;1037815;28;1401;-51
2023/03/22 03:09:36;;;;;;;;;;;;;;;;;;1037005;28;4230;-51
2023/03/22 03:10:06;;;;;;;;;;;;;;;;;;1033414;28;3334;-51
2023/03/22 03:10:39;;;;;;;;;;;;;;;;;;1035092;28;4094;-50
2023/03/22 03:11:09;;;;;;;;;;;;;;;;;;1037041;28;3152;-53
2023/03/22 03:11:39;;;;;;;;;;;;;;;;;;1035284;28;3870;-50
2023/03/22 03:12:17;;;;;;;;;;;;;;;;;;1037053;28;2932;-49
2023/03/22 03:12:47;;;;;;;;;;;;;;;;;;1039197;28;3858;-53
2023/03/22 03:13:18;;;;;;;;;;;;;;;;;;1037250;28;2982;-50
2023/03/22 03:13:49;;;;;;;;;;;;;;;;;;1036018;28;4068;-52
2023/03/22 03:14:20;;;;;;;;;;;;;;;;;;1037942;28;2635;-52
2023/03/22 03:14:51;;;;;;;;;;;;;;;;;;1036768;28;3840;-47
2023/03/22 03:15:22;;;;;;;;;;;;;;;;;;1035601;28;2951;-49
2023/03/22 03:15:57;;;;;;;;;;;;;;;;;;1036602;28;3994;-50
2023/03/22 03:16:29;;;;;;;;;;;;;;;;;;1035632;28;4131;-50
2023/03/22 03:17:18;;;;;;;;;;;;;;;;;;1037087;28;2785;-47
2023/03/22 03:17:48;;;;;;;;;;;;;;;;;;1037749;28;4031;-51
2023/03/22 03:18:54;;;;;;;;;;;;;;;;;;1037248;28;2564;-51
2023/03/22 03:19:29;;;;;;;;;;;;;;;;;;1030389;28;5148;-48
2023/03/22 03:20:09;;;;;;;;;;;;;;;;;;1031112;28;2887;-49
2023/03/22 03:21:01;;;;;;;;;;;;;;;;;;1032861;28;3913;-51
2023/03/22 03:21:35;;;;;;;;;;;;;;;;;;1032075;28;4069;-51
2023/03/22 03:22:26;;;;;;;;;;;;;;;;;;1032940;28;2871;-52
2023/03/22 03:23:02;;;;;;;;;;;;;;;;;;1037354;28;4095;-51
2023/03/22 03:23:51;;;;;;;;;;;;;;;;;;1037973;28;4413;-49
2023/03/22 03:24:26;;;;;;;;;;;;;;;;;;1036743;28;3156;-50
2023/03/22 03:24:56;;;;;;;;;;;;;;;;;;1037639;28;3882;-51
2023/03/22 03:25:32;;;;;;;;;;;;;;;;;;1038732;28;3978;-52
2023/03/22 03:26:02;;;;;;;;;;;;;;;;;;1036396;28;2806;-48
2023/03/22 03:26:48;;;;;;;;;;;;;;;;;;1038672;28;4058;-47
2023/03/22 03:27:28;;;;;;;;;;;;;;;;;;1036262;28;3526;-51
2023/03/22 03:28:03;;;;;;;;;;;;;;;;;;1037873;28;3996;-49
2023/03/22 03:28:37;;;;;;;;;;;;;;;;;;1036907;28;4100;-48
2023/03/22 03:29:13;;;;;;;;;;;;;;;;;;1036345;28;2944;-50
2023/03/22 03:29:55;;;;;;;;;;;;;;;;;;1037934;28;3901;-49
2023/03/22 03:30:43;;;;;;;;;;;;;;;;;;1035048;28;4582;-52
2023/03/22 03:31:25;;;;;;;;;;;;;;;;;;1037591;28;2858;-50
2023/03/22 03:31:56;;;;;;;;;;;;;;;;;;1039024;28;3834;-52
2023/03/22 03:32:34;;;;;;;;;;;;;;;;;;1038774;28;4095;-51
2023/03/22 03:33:12;;;;;;;;;;;;;;;;;;1037347;28;2259;-49
2023/03/22 03:33:56;;;;;;;;;;;;;;;;;;1037750;28;3954;-49
2023/03/22 03:34:34;;;;;;;;;;;;;;;;;;1037481;28;4185;-50
2023/03/22 03:35:16;;;;;;;;;;;;;;;;;;1036137;28;2745;-49
2023/03/22 03:35:52;;;;;;;;;;;;;;;;;;1038946;28;3853;-52
2023/03/22 03:36:23;;;;;;;;;;;;;;;;;;1038832;28;2708;-52
2023/03/22 03:37:03;;;;;;;;;;;;;;;;;;1038537;28;3996;-49
2023/03/22 03:37:36;;;;;;;;;;;;;;;;;;1039547;28;3978;-52
2023/03/22 03:38:07;;;;;;;;;;;;;;;;;;1037689;28;2255;-50
2023/03/22 03:38:39;;;;;;;;;;;;;;;;;;1037899;28;3971;-49
2023/03/22 03:39:11;;;;;;;;;;;;;;;;;;1037444;28;2815;-49
2023/03/22 03:39:44;;;;;;;;;;;;;;;;;;1039311;28;4401;-49
2023/03/22 03:40:21;;;;;;;;;;;;;;;;;;1036488;28;2481;-53
2023/03/22 03:40:57;;;;;;;;;;;;;;;;;;1036911;28;4773;-51
2023/03/22 03:41:29;;;;;;;;;;;;;;;;;;1037130;28;3970;-51
2023/03/22 03:42:00;;;;;;;;;;;;;;;;;;1036783;28;2949;-53
2023/03/22 03:42:31;;;;;;;;;;;;;;;;;;1037292;28;4091;-53
2023/03/22 03:43:02;;;;;;;;;;;;;;;;;;1037610;28;2414;-49
2023/03/22 03:43:33;;;;;;;;;;;;;;;;;;1034866;28;3828;-51
2023/03/22 03:44:04;;;;;;;;;;;;;;;;;;1032826;28;2930;-49
2023/03/22 03:44:35;;;;;;;;;;;;;;;;;;1036798;28;3919;-50
2023/03/22 03:45:06;;;;;;;;;;;;;;;;;;1036848;28;2102;-52
2023/03/22 03:45:36;;;;;;;;;;;;;;;;;;1036048;28;3940;-53
2023/03/22 03:46:07;;;;;;;;;;;;;;;;;;1036111;28;2793;-51
2023/03/22 03:46:37;;;;;;;;;;;;;;;;;;1037392;28;4116;-48
2023/03/22 03:47:09;;;;;;;;;;;;;;;;;;1039782;28;1874;-50
2023/03/22 03:47:42;;;;;;;;;;;;;;;;;;1034999;28;3945;-50
2023/03/22 03:48:20;;;;;;;;;;;;;;;;;;1038477;28;1964;-50
2023/03/22 03:48:51;;;;;;;;;;;;;;;;;;1037065;28;4239;-49
2023/03/22 03:49:22;;;;;;;;;;;;;;;;;;1036177;28;4301;-50
2023/03/22 03:49:52;;;;;;;;;;;;;;;;;;1036146;28;4040;-50
2023/03/22 03:50:24;;;;;;;;;;;;;;;;;;1037034;28;2871;-49
2023/03/22 03:50:55;;;;;;;;;;;;;;;;;;1036546;28;3703;-53